Time;durP1;ratioP1;P1;durP2;ratioP2;P2;SDS_P1;SDS_P2;PMS_P1;PMS_P2;Temp;Humidity;BMP_temperature;BMP_pressure;BME280_temperature;BME280_humidity;BME280_pressure;Samples;Min_cycle;Max_cycle;Signal;HPM_P1;HPM_P2
2021/04/07 00:01:43;;;;;;;10.78;6.08;;;;;;;6.62;98.82;98961.70;1743860;82;21278;-77
2021/04/07 00:04:58;;;;;;;11.73;6.03;;;;;;;6.64;99.06;98970.02;1743918;82;21661;-78
2021/04/07 00:08:04;;;;;;;13.55;5.83;;;;;;;6.64;99.24;98967.83;1743927;82;21842;-78
2021/04/07 00:11:10;;;;;;;13.60;5.83;;;;;;;6.64;99.43;98948.80;1742114;82;21176;-78
2021/04/07 00:14:16;;;;;;;15.72;7.00;;;;;;;6.63;99.63;98943.02;1743896;82;21308;-78
2021/04/07 00:17:23;;;;;;;19.35;6.35;;;;;;;6.62;99.83;98944.05;1742397;82;21217;-78
2021/04/07 00:20:31;;;;;;;13.25;6.45;;;;;;;6.61;100.00;98939.13;1743886;82;21304;-78
2021/04/07 00:23:36;;;;;;;11.38;5.83;;;;;;;6.63;100.00;98927.59;1743925;82;21209;-78
2021/04/07 00:26:42;;;;;;;12.65;5.65;;;;;;;6.63;100.00;98912.64;1744006;82;21277;-78
2021/04/07 00:29:47;;;;;;;13.30;6.25;;;;;;;6.63;100.00;98910.41;1744000;82;21174;-78
2021/04/07 00:32:51;;;;;;;12.20;6.53;;;;;;;6.64;100.00;98899.89;1743952;82;21324;-78
2021/04/07 00:35:58;;;;;;;9.98;5.75;;;;;;;6.62;100.00;98886.99;1743780;82;21292;-78
2021/04/07 00:39:03;;;;;;;13.70;6.12;;;;;;;6.61;100.00;98862.22;1743915;82;21328;-78
2021/04/07 00:42:13;;;;;;;19.15;6.58;;;;;;;6.59;100.00;98843.92;1743969;82;21185;-78
2021/04/07 00:45:20;;;;;;;15.83;8.30;;;;;;;6.59;100.00;98835.77;1744179;82;21212;-78
2021/04/07 00:48:26;;;;;;;13.68;5.97;;;;;;;6.60;100.00;98836.09;1743809;82;21304;-78
2021/04/07 00:51:32;;;;;;;12.65;5.83;;;;;;;6.61;100.00;98831.81;1741805;82;21388;-78
2021/04/07 00:54:38;;;;;;;12.20;5.97;;;;;;;6.62;100.00;98836.73;1735078;82;21351;-78
2021/04/07 00:57:44;;;;;;;10.03;5.20;;;;;;;6.63;100.00;98824.34;1705724;84;21204;-78
2021/04/07 01:00:50;;;;;;;13.13;5.83;;;;;;;6.62;100.00;98806.33;1705688;84;21825;-78
2021/04/07 01:03:56;;;;;;;10.78;4.45;;;;;;;6.64;100.00;98793.41;1705725;84;21212;-78
2021/04/07 01:07:02;;;;;;;10.63;5.70;;;;;;;6.64;100.00;98768.13;1705485;84;21185;-77
2021/04/07 01:10:11;;;;;;;8.43;6.10;;;;;;;6.62;100.00;98756.58;1711033;82;21273;-77
2021/04/07 01:13:16;;;;;;;9.18;5.97;;;;;;;6.59;100.00;98762.41;1734983;82;21185;-77
2021/04/07 01:16:23;;;;;;;8.68;5.28;;;;;;;6.56;100.00;98759.55;1735109;82;21166;-77
2021/04/07 01:19:29;;;;;;;8.43;5.35;;;;;;;6.56;100.00;98772.28;1734992;82;21285;-77
2021/04/07 01:22:34;;;;;;;6.08;3.83;;;;;;;6.58;100.00;98775.64;1735062;82;21321;-78
2021/04/07 01:25:40;;;;;;;7.55;4.42;;;;;;;6.63;100.00;98759.62;1734975;82;21920;-77
2021/04/07 01:28:47;;;;;;;11.48;5.15;;;;;;;6.63;100.00;98755.55;1734974;82;21324;-78
2021/04/07 01:31:57;;;;;;;11.28;5.45;;;;;;;6.64;100.00;98756.73;1735028;82;21269;-78
2021/04/07 01:35:02;;;;;;;8.18;3.40;;;;;;;6.70;100.00;98761.08;1735154;82;21265;-78
2021/04/07 01:38:07;;;;;;;8.50;4.25;;;;;;;6.75;100.00;98766.27;1735002;82;21854;-78
2021/04/07 01:41:12;;;;;;;7.72;4.28;;;;;;;6.77;100.00;98769.62;1735021;82;21146;-78
2021/04/07 01:44:18;;;;;;;6.12;3.37;;;;;;;6.78;100.00;98775.41;1735071;82;21268;-78
2021/04/07 01:47:24;;;;;;;6.85;3.55;;;;;;;6.80;100.00;98760.27;1735020;82;21754;-78
2021/04/07 01:50:30;;;;;;;4.35;3.02;;;;;;;6.82;100.00;98765.86;1713236;82;21190;-78
2021/04/07 01:53:36;;;;;;;8.03;3.52;;;;;;;6.85;100.00;98759.18;1743286;81;21300;-77
2021/04/07 01:56:55;;;;;;;4.97;3.25;;;;;;;6.86;100.00;98753.55;1752067;82;21718;-78
2021/04/07 02:00:00;;;;;;;7.03;3.27;;;;;;;6.86;100.00;98754.06;1752210;82;21275;-78
2021/04/07 02:03:12;;;;;;;4.85;3.00;;;;;;;6.85;100.00;98755.94;1752192;82;21205;-78
2021/04/07 02:06:17;;;;;;;9.93;3.83;;;;;;;6.87;100.00;98756.61;1752238;82;21762;-77
2021/04/07 02:09:22;;;;;;;4.67;3.30;;;;;;;6.88;100.00;98758.29;1752165;82;21200;-77
2021/04/07 02:12:28;;;;;;;5.62;3.00;;;;;;;6.90;100.00;98756.73;1752167;82;21220;-77
2021/04/07 02:15:33;;;;;;;4.20;2.90;;;;;;;6.91;100.00;98757.05;1752311;82;21164;-77
2021/04/07 02:18:38;;;;;;;5.42;3.92;;;;;;;6.91;100.00;98756.53;1752168;82;21216;-76
2021/04/07 02:21:45;;;;;;;7.35;4.40;;;;;;;6.91;100.00;98753.81;1752057;82;21194;-76
2021/04/07 02:24:53;;;;;;;5.70;3.90;;;;;;;6.91;100.00;98751.61;1752192;82;21718;-76
2021/04/07 02:27:59;;;;;;;8.70;4.65;;;;;;;6.93;100.00;98752.80;1752107;82;21311;-76
2021/04/07 02:31:04;;;;;;;10.85;5.33;;;;;;;6.95;100.00;98742.56;1752180;82;21909;-76
2021/04/07 02:34:10;;;;;;;6.15;4.12;;;;;;;6.95;100.00;98737.13;1752187;82;21328;-76
2021/04/07 02:37:16;;;;;;;7.08;4.62;;;;;;;6.96;100.00;98731.49;1752047;82;21279;-76
2021/04/07 02:40:22;;;;;;;6.30;4.28;;;;;;;6.98;100.00;98729.97;1752140;82;21164;-77
2021/04/07 02:43:28;;;;;;;5.90;3.50;;;;;;;7.00;100.00;98718.37;1752176;82;21192;-77
2021/04/07 02:46:33;;;;;;;5.70;4.80;;;;;;;7.03;100.00;98716.64;1752126;82;21311;-76
2021/04/07 02:49:39;;;;;;;7.08;4.95;;;;;;;7.03;100.00;98711.20;1752016;82;21324;-77
2021/04/07 02:52:45;;;;;;;4.10;2.83;;;;;;;7.04;100.00;98697.41;1752186;82;21561;-76
2021/04/07 02:55:50;;;;;;;6.22;5.53;;;;;;;7.07;100.00;98698.91;1743832;81;21313;-76
2021/04/07 02:58:57;;;;;;;5.65;3.40;;;;;;;7.10;100.00;98693.06;1743874;82;21181;-76
2021/04/07 03:02:05;;;;;;;4.92;4.17;;;;;;;7.10;100.00;98684.91;1743903;82;21336;-76
2021/04/07 03:05:09;;;;;;;16.85;14.73;;;;;;;7.10;100.00;98675.39;1743892;82;21169;-76
2021/04/07 03:08:13;;;;;;;28.95;26.02;;;;;;;7.10;100.00;98664.52;1743758;82;21304;-76
2021/04/07 03:11:19;;;;;;;49.35;44.25;;;;;;;7.08;100.00;98648.92;1743899;82;21225;-76
2021/04/07 03:14:25;;;;;;;51.73;46.65;;;;;;;7.11;100.00;98631.72;1743955;82;21799;-76
2021/04/07 03:17:31;;;;;;;38.08;23.65;;;;;;;7.11;100.00;98622.20;1743811;82;21300;-76
2021/04/07 03:20:36;;;;;;;81.42;36.03;;;;;;;7.11;100.00;98599.09;1745671;82;21263;-76
2021/04/07 03:23:42;;;;;;;105.47;59.45;;;;;;;7.16;100.00;98605.30;1750055;82;21834;-76
2021/04/07 03:26:48;;;;;;;95.85;43.15;;;;;;;7.20;100.00;98595.72;1747851;82;21256;-77
2021/04/07 03:29:58;;;;;;;55.15;25.88;;;;;;;7.22;100.00;98588.19;1744146;82;21178;-76
2021/04/07 03:33:02;;;;;;;36.70;18.95;;;;;;;7.28;100.00;98583.84;1734945;82;21213;-76
2021/04/07 03:36:07;;;;;;;28.23;14.23;;;;;;;7.33;100.00;98579.48;1803483;79;21142;-76
2021/04/07 03:39:13;;;;;;;21.45;11.53;;;;;;;7.40;100.00;98582.27;1792789;79;21261;-77
2021/04/07 03:42:18;;;;;;;22.20;10.95;;;;;;;7.49;100.00;98588.41;1787794;79;21315;-77
2021/04/07 03:45:24;;;;;;;19.10;10.60;;;;;;;7.60;100.00;98605.00;1770765;79;21761;-77
2021/04/07 03:48:32;;;;;;;19.60;10.80;;;;;;;7.76;100.00;98600.28;1765283;81;21162;-77
2021/04/07 03:51:38;;;;;;;18.42;10.00;;;;;;;7.91;100.00;98613.28;1765296;81;21220;-77
2021/04/07 03:54:44;;;;;;;16.07;8.65;;;;;;;8.02;100.00;98622.23;1791781;79;21256;-77
2021/04/07 03:57:51;;;;;;;19.98;9.55;;;;;;;8.10;100.00;98622.59;1715590;82;21866;-77
2021/04/07 04:00:57;;;;;;;15.53;9.48;;;;;;;8.09;100.00;98615.45;1803540;79;21831;-77
2021/04/07 04:04:02;;;;;;;15.65;9.58;;;;;;;8.07;100.00;98609.38;1803452;79;21327;-77
2021/04/07 04:07:08;;;;;;;20.40;9.35;;;;;;;8.08;100.00;98615.13;1803433;79;21861;-77
2021/04/07 04:10:14;;;;;;;26.95;9.50;;;;;;;8.15;100.00;98619.58;1778305;79;21253;-77
2021/04/07 04:13:19;;;;;;;17.32;8.70;;;;;;;8.23;100.00;98621.28;1803509;79;21188;-77
2021/04/07 04:16:25;;;;;;;20.85;8.23;;;;;;;8.32;100.00;98617.34;1803578;79;21777;-77
2021/04/07 04:19:30;;;;;;;16.55;6.15;;;;;;;8.40;99.66;98606.83;1787607;79;21252;-77
2021/04/07 04:22:36;;;;;;;13.55;6.40;;;;;;;8.42;99.08;98613.77;1790323;79;21921;-77
2021/04/07 04:25:41;;;;;;;13.03;4.30;;;;;;;8.38;98.52;98608.41;1802525;79;21193;-77
2021/04/07 04:28:47;;;;;;;9.05;4.55;;;;;;;8.40;98.34;98617.20;1772944;79;21350;-77
2021/04/07 04:31:53;;;;;;;9.03;4.87;;;;;;;8.39;98.02;98611.45;1786994;79;21819;-77
2021/04/07 04:34:59;;;;;;;7.25;3.75;;;;;;;8.37;97.72;98605.34;1714850;82;21343;-79
2021/04/07 04:38:05;;;;;;;7.33;3.62;;;;;;;8.37;97.49;98595.80;1803394;79;21299;-77
2021/04/07 04:41:11;;;;;;;8.78;3.65;;;;;;;8.35;97.37;98589.70;1784278;79;21137;-77
2021/04/07 04:44:17;;;;;;;8.18;4.15;;;;;;;8.32;97.34;98592.82;1792212;79;21319;-77
2021/04/07 04:47:24;;;;;;;7.08;3.00;;;;;;;8.25;97.28;98601.51;1785029;79;21629;-77
2021/04/07 04:50:29;;;;;;;7.00;3.00;;;;;;;8.15;97.51;98601.05;1768379;79;21292;-77
2021/04/07 04:53:34;;;;;;;6.28;3.22;;;;;;;8.15;97.97;98603.77;1779082;79;21827;-77
2021/04/07 04:56:39;;;;;;;10.55;3.47;;;;;;;8.13;98.30;98608.03;1786191;79;21865;-78
2021/04/07 04:59:45;;;;;;;9.93;6.00;;;;;;;8.09;98.59;98601.34;1785983;79;21814;-78
2021/04/07 05:02:49;;;;;;;14.70;6.85;;;;;;;8.06;99.04;98599.53;1792952;79;21181;-78
2021/04/07 05:05:54;;;;;;;19.98;8.08;;;;;;;8.05;99.58;98591.05;1793782;79;21703;-78
2021/04/07 05:09:00;;;;;;;15.53;8.28;;;;;;;8.05;100.00;98580.16;1789476;79;21279;-78
2021/04/07 05:12:05;;;;;;;35.17;11.50;;;;;;;8.06;100.00;98569.05;1729249;82;21219;-78
2021/04/07 05:15:12;;;;;;;20.85;11.30;;;;;;;8.10;100.00;98564.05;1782358;79;21279;-77
2021/04/07 05:18:25;;;;;;;28.10;14.47;;;;;;;8.14;100.00;98576.22;1783057;79;21299;-78
2021/04/07 05:21:31;;;;;;;38.95;17.50;;;;;;;8.20;100.00;98578.13;1783913;79;21280;-78
2021/04/07 05:24:35;;;;;;;34.00;16.07;;;;;;;8.26;100.00;98566.41;1787547;79;21265;-78
2021/04/07 05:27:41;;;;;;;36.10;16.95;;;;;;;8.39;100.00;98554.23;1792162;79;21282;-79
2021/04/07 05:31:00;;;;;;;44.58;18.00;;;;;;;8.52;100.00;98544.42;1795516;79;21270;-79
2021/04/07 05:34:06;;;;;;;36.90;17.00;;;;;;;8.60;100.00;98538.77;1788591;79;21832;-78
2021/04/07 05:37:12;;;;;;;39.33;14.98;;;;;;;8.65;100.00;98543.06;1788363;79;21150;-79
2021/04/07 05:40:19;;;;;;;37.63;14.63;;;;;;;8.70;100.00;98546.01;1784968;79;21319;-78
2021/04/07 05:43:28;;;;;;;31.07;13.60;;;;;;;8.76;100.00;98535.66;1791119;79;21177;-79
2021/04/07 05:46:33;;;;;;;32.73;13.70;;;;;;;8.81;100.00;98549.50;1785471;79;21299;-79
2021/04/07 05:49:39;;;;;;;29.98;12.33;;;;;;;8.82;100.00;98543.52;1790929;79;21257;-79
2021/04/07 05:52:45;;;;;;;26.80;9.35;;;;;;;8.84;100.00;98541.41;1788861;79;21836;-79
2021/04/07 05:55:56;;;;;;;22.98;8.60;;;;;;;8.82;100.00;98536.19;1791353;78;21300;-79
2021/04/07 05:59:02;;;;;;;22.45;6.83;;;;;;;8.83;100.00;98533.77;1787439;79;21312;-79
2021/04/07 06:02:09;;;;;;;19.02;6.33;;;;;;;8.84;100.00;98534.08;1784966;79;21326;-80
2021/04/07 06:05:16;;;;;;;18.00;7.22;;;;;;;8.87;100.00;98530.94;1785352;78;21239;-79
2021/04/07 06:08:23;;;;;;;21.25;6.78;;;;;;;8.88;100.00;98531.25;1790300;78;21311;-79
2021/04/07 06:11:29;;;;;;;24.65;7.30;;;;;;;8.90;100.00;98518.80;1785583;79;21141;-79
2021/04/07 06:14:35;;;;;;;26.60;7.40;;;;;;;8.95;100.00;98527.18;1793287;79;21268;-79
2021/04/07 06:17:41;;;;;;;22.00;6.90;;;;;;;9.04;100.00;98527.81;1789808;79;21815;-78
2021/04/07 06:20:49;;;;;;;21.87;7.20;;;;;;;9.18;100.00;98528.97;1788051;79;21309;-79
2021/04/07 06:23:55;;;;;;;21.87;7.35;;;;;;;9.37;100.00;98506.80;1727868;81;21368;-78
2021/04/07 06:27:14;;;;;;;18.02;7.42;;;;;;;9.53;100.00;98512.86;1724732;82;21387;-78
2021/04/07 06:30:24;;;;;;;19.80;6.55;;;;;;;9.63;100.00;98511.88;1723313;82;21686;-79
2021/04/07 06:33:39;;;;;;;22.50;7.67;;;;;;;9.68;99.68;98505.25;1725522;82;21290;-79
2021/04/07 06:36:44;;;;;;;19.07;7.47;;;;;;;9.71;99.01;98502.10;1787731;79;21266;-80
2021/04/07 06:39:49;;;;;;;19.95;7.75;;;;;;;9.70;98.23;98497.17;1732587;81;21315;-79
2021/04/07 06:42:55;;;;;;;22.82;7.53;;;;;;;9.69;97.61;98498.73;1791002;79;21274;-80
2021/04/07 06:45:59;;;;;;;20.40;7.15;;;;;;;9.72;97.25;98498.31;1784462;78;21284;-82
2021/04/07 06:49:05;;;;;;;23.77;6.22;;;;;;;9.78;96.97;98496.61;1787566;79;21311;-83
2021/04/07 06:52:11;;;;;;;23.35;6.97;;;;;;;9.83;96.62;98483.98;1785360;79;21307;-82
2021/04/07 06:55:18;;;;;;;24.85;6.20;;;;;;;9.92;96.40;98493.61;1776451;79;21287;-81
2021/04/07 06:58:25;;;;;;;19.70;6.22;;;;;;;10.08;96.36;98476.44;1794316;79;21284;-81
2021/04/07 07:01:32;;;;;;;16.75;5.45;;;;;;;10.23;96.04;98475.63;1747608;79;21277;-79
2021/04/07 07:04:37;;;;;;;18.10;5.67;;;;;;;10.35;95.20;98475.28;1770132;79;21176;-79
2021/04/07 07:07:44;;;;;;;23.55;6.85;;;;;;;10.45;94.66;98479.73;1785160;79;21330;-81
2021/04/07 07:10:55;;;;;;;15.43;5.03;;;;;;;10.55;94.16;98477.05;1782879;78;21274;-80
2021/04/07 07:14:01;;;;;;;20.08;5.47;;;;;;;10.70;93.92;98469.36;1779951;79;21179;-80
2021/04/07 07:17:09;;;;;;;22.30;6.47;;;;;;;10.79;92.89;98472.66;1787345;79;21305;-80
2021/04/07 07:20:16;;;;;;;18.48;6.28;;;;;;;10.81;92.27;98464.52;1785177;79;21325;-79
2021/04/07 07:23:38;;;;;;;23.40;5.60;;;;;;;10.91;92.11;98466.22;1718211;82;21685;-79
2021/04/07 07:26:48;;;;;;;18.32;5.67;;;;;;;10.95;91.24;98466.63;1734111;81;21355;-79
2021/04/07 07:30:01;;;;;;;27.45;6.53;;;;;;;10.96;90.61;98463.69;1732555;80;21641;-80
2021/04/07 07:33:07;;;;;;;22.60;7.15;;;;;;;11.03;90.51;98471.82;1736963;80;21329;-79
2021/04/07 07:36:16;;;;;;;31.07;6.08;;;;;;;11.14;90.03;98472.45;1747459;80;21269;-79
2021/04/07 07:39:22;;;;;;;21.90;6.20;;;;;;;11.19;89.35;98472.61;1721397;82;21770;-79
2021/04/07 07:42:29;;;;;;;25.25;6.15;;;;;;;11.20;88.83;98474.30;1665403;83;21796;-79
2021/04/07 07:45:42;;;;;;;32.50;5.92;;;;;;;11.23;88.44;98479.31;1698679;82;21830;-79
2021/04/07 07:48:49;;;;;;;26.70;5.95;;;;;;;11.21;88.08;98484.72;1736285;80;21326;-78
2021/04/07 07:51:56;;;;;;;23.60;6.00;;;;;;;11.17;88.00;98490.33;1735176;80;21219;-79
2021/04/07 07:55:03;;;;;;;21.37;7.15;;;;;;;11.11;87.81;98488.50;1748265;80;21662;-81
2021/04/07 07:58:12;;;;;;;18.95;5.05;;;;;;;11.07;87.92;98495.48;1757963;80;21339;-81
2021/04/07 08:01:17;;;;;;;33.25;7.33;;;;;;;11.04;87.98;98498.64;1697015;84;21289;-81
2021/04/07 08:04:23;;;;;;;34.03;8.15;;;;;;;10.99;87.97;98495.21;1695742;83;21284;-81
2021/04/07 08:07:30;;;;;;;25.02;5.78;;;;;;;10.93;88.04;98498.31;1701962;84;21992;-80
2021/04/07 08:10:37;;;;;;;36.28;7.25;;;;;;;10.89;88.38;98501.18;1700550;83;21296;-81
2021/04/07 08:13:45;;;;;;;27.70;6.22;;;;;;;10.89;88.58;98494.34;1699353;82;21264;-82
2021/04/07 08:16:52;;;;;;;30.68;6.42;;;;;;;10.89;88.86;98482.03;1701761;83;21936;-81
2021/04/07 08:20:00;;;;;;;33.80;6.55;;;;;;;10.90;88.83;98487.80;1700686;83;21184;-81
2021/04/07 08:23:05;;;;;;;19.27;5.22;;;;;;;10.86;88.84;98492.04;1726828;81;21170;-81
2021/04/07 08:26:11;;;;;;;23.87;6.72;;;;;;;10.87;88.87;98490.14;1701708;83;21810;-81
2021/04/07 08:29:16;;;;;;;20.37;6.45;;;;;;;10.84;88.88;98496.91;1697221;83;21850;-80
2021/04/07 08:32:26;;;;;;;25.12;6.90;;;;;;;10.81;88.65;98493.24;1703508;82;21316;-79
2021/04/07 08:35:31;;;;;;;;;;;;;;;10.79;88.63;98495.91;1698945;83;21371;-81
2021/04/07 08:38:39;;;;;;;35.23;7.45;;;;;;;10.77;88.69;98495.27;1713411;82;20988;-81
2021/04/07 08:41:50;;;;;;;30.97;6.97;;;;;;;10.75;88.75;98500.97;1714796;83;21294;-80
2021/04/07 08:44:57;;;;;;;21.52;6.78;;;;;;;10.76;88.85;98495.80;1711218;82;21687;-80
2021/04/07 08:48:03;;;;;;;24.45;6.90;;;;;;;10.77;88.78;98489.80;1730257;81;21168;-80
2021/04/07 08:51:22;;;;;;;30.15;9.75;;;;;;;10.73;88.51;98489.44;1723202;81;21307;-81
2021/04/07 08:54:28;;;;;;;34.75;9.80;;;;;;;10.70;88.56;98488.50;1700483;83;21370;-80
2021/04/07 08:57:39;;;;;;;32.67;14.25;;;;;;;10.67;88.96;98499.33;1698503;83;21176;-80
2021/04/07 09:00:45;;;;;;;46.28;18.00;;;;;;;10.64;89.13;98498.42;1697583;82;21638;-80
2021/04/07 09:03:50;;;;;;;48.50;20.15;;;;;;;10.66;89.38;98500.40;1723905;81;21212;-80
2021/04/07 09:07:09;;;;;;;42.17;21.15;;;;;;;10.70;89.23;98492.59;1705308;82;21192;-83
2021/04/07 09:10:29;;;;;;;47.17;19.73;;;;;;;10.70;89.15;98497.53;1723920;81;21318;-81
2021/04/07 09:13:40;;;;;;;42.55;21.57;;;;;;;10.73;89.33;98502.57;1696677;83;21847;-80
2021/04/07 09:16:47;;;;;;;49.10;22.58;;;;;;;10.73;89.33;98505.84;1721381;81;21323;-81
2021/04/07 09:19:59;;;;;;;54.25;23.80;;;;;;;10.66;89.09;98511.87;1722988;81;21181;-82
2021/04/07 09:23:36;;;;;;;51.10;23.92;;;;;;;10.62;89.10;98505.16;1720393;81;21275;-81
2021/04/07 09:26:46;;;;;;;51.45;22.85;;;;;;;10.61;89.20;98509.80;1707053;81;21901;-82
2021/04/07 09:29:52;;;;;;;58.40;21.27;;;;;;;10.59;89.24;98501.52;1698236;83;21299;-81
2021/04/07 09:33:00;;;;;;;45.52;20.68;;;;;;;10.54;89.39;98499.95;1698707;82;21598;-81
2021/04/07 09:36:07;;;;;;;43.10;20.37;;;;;;;10.43;89.45;98491.39;1700964;81;21174;-81
2021/04/07 09:39:15;;;;;;;49.95;19.45;;;;;;;10.27;89.55;98491.92;1721804;81;21245;-81
2021/04/07 09:42:23;;;;;;;27.75;14.23;;;;;;;10.13;90.02;98477.45;1723832;81;21319;-81
2021/04/07 09:45:36;;;;;;;27.50;15.43;;;;;;;10.16;90.26;98476.17;1707127;82;21311;-82
2021/04/07 09:48:58;;;;;;;36.93;14.43;;;;;;;10.23;90.29;98481.92;1722133;82;21292;-81
2021/04/07 09:52:14;;;;;;;24.30;12.65;;;;;;;10.32;90.11;98492.63;1700999;81;21200;-81
2021/04/07 09:55:32;;;;;;;26.42;10.70;;;;;;;10.35;89.78;98508.58;1724045;81;21240;-82
2021/04/07 09:58:39;;;;;;;19.77;9.10;;;;;;;10.31;89.42;98511.46;1693557;83;21880;-81
2021/04/07 10:01:47;;;;;;;18.20;9.15;;;;;;;10.29;89.30;98506.72;1682292;82;21195;-80
2021/04/07 10:04:53;;;;;;;12.60;7.55;;;;;;;10.28;88.95;98503.16;1719679;82;21296;-80
2021/04/07 10:07:59;;;;;;;13.45;8.38;;;;;;;10.30;88.64;98514.69;1720973;82;21189;-81
2021/04/07 10:11:15;;;;;;;11.05;7.17;;;;;;;10.29;88.41;98515.75;1724412;82;21324;-81
2021/04/07 10:14:22;;;;;;;9.93;6.83;;;;;;;10.29;87.95;98518.48;1723212;82;21242;-81
2021/04/07 10:17:31;;;;;;;6.12;5.53;;;;;;;10.33;87.96;98521.10;1721872;81;21292;-81
2021/04/07 10:20:36;;;;;;;8.90;5.70;;;;;;;10.36;87.58;98520.67;1699110;82;21577;-82
2021/04/07 10:23:41;;;;;;;6.00;4.92;;;;;;;10.41;87.85;98535.89;1719663;82;21177;-81
2021/04/07 10:26:52;;;;;;;7.20;4.87;;;;;;;10.49;87.85;98532.91;1752484;80;21884;-80
2021/04/07 10:29:58;;;;;;;7.28;5.40;;;;;;;10.54;87.57;98534.12;1720627;82;21315;-81
2021/04/07 10:33:07;;;;;;;7.60;5.50;;;;;;;10.63;87.46;98536.91;1791287;77;21173;-81
2021/04/07 10:36:13;;;;;;;8.43;5.83;;;;;;;10.77;87.18;98539.03;1708912;82;21237;-81
2021/04/07 10:39:22;;;;;;;9.18;5.97;;;;;;;10.90;85.97;98540.31;1784947;79;21157;-82
2021/04/07 10:42:21;;;;;;;8.48;5.53;;;;;;;11.04;84.84;98547.89;1784741;79;21271;-83
2021/04/07 10:45:29;;;;;;;7.10;5.22;;;;;;;11.17;84.15;98556.00;1787089;79;21283;-81
2021/04/07 10:48:36;;;;;;;6.12;5.20;;;;;;;11.24;83.51;98560.87;1784153;79;21256;-82
2021/04/07 10:51:42;;;;;;;5.83;5.20;;;;;;;11.23;82.27;98564.68;1788634;79;21837;-81
2021/04/07 10:54:56;;;;;;;8.73;5.95;;;;;;;11.21;82.48;98565.45;1725776;82;21181;-84
2021/04/07 10:58:11;;;;;;;;;;;;;;;11.24;82.37;98568.59;1763562;79;21152;-81
2021/04/07 11:01:16;;;;;;;7.33;6.53;;;;;;;11.38;82.55;98567.08;1783803;78;20276;-82
2021/04/07 11:04:27;;;;;;;6.45;5.83;;;;;;;11.55;81.43;98564.62;1740782;80;21336;-82
2021/04/07 11:07:31;;;;;;;7.95;7.12;;;;;;;11.71;80.29;98566.77;1757861;80;22046;-82
2021/04/07 11:10:50;;;;;;;10.32;7.00;;;;;;;11.80;78.74;98563.21;1761602;80;21173;-82
2021/04/07 11:13:56;;;;;;;7.65;5.78;;;;;;;11.82;77.70;98563.84;1734444;80;21212;-81
2021/04/07 11:17:09;;;;;;;7.08;5.33;;;;;;;11.80;77.91;98564.05;1738178;80;21181;-82
2021/04/07 11:20:16;;;;;;;4.67;4.28;;;;;;;11.85;77.46;98579.30;1747841;80;21175;-82
2021/04/07 11:23:24;;;;;;;5.28;4.17;;;;;;;12.00;77.09;98588.02;1733590;80;21289;-82
2021/04/07 11:26:29;;;;;;;5.17;3.40;;;;;;;12.15;76.68;98584.06;1749728;79;21870;-82
2021/04/07 11:29:36;;;;;;;4.90;3.58;;;;;;;12.32;76.10;98582.36;1744510;80;21327;-81
2021/04/07 11:32:46;;;;;;;5.75;3.52;;;;;;;12.43;75.55;98576.13;1721529;80;21610;-81
2021/04/07 11:36:01;;;;;;;4.25;3.00;;;;;;;12.52;74.87;98570.63;1735307;80;21296;-82
2021/04/07 11:39:11;;;;;;;4.50;2.85;;;;;;;12.54;74.21;98571.22;1736738;80;21261;-81
2021/04/07 11:42:11;;;;;;;4.15;2.55;;;;;;;12.60;74.18;98577.67;1743837;80;21507;-82
2021/04/07 11:45:16;;;;;;;4.33;2.62;;;;;;;12.73;74.13;98579.41;1742227;80;21571;-82
2021/04/07 11:48:22;;;;;;;5.17;2.42;;;;;;;12.82;73.89;98588.99;1737325;80;21328;-82
2021/04/07 11:51:28;;;;;;;4.20;2.52;;;;;;;12.96;73.15;98584.98;1743776;80;21314;-82
2021/04/07 11:54:33;;;;;;;6.47;3.50;;;;;;;13.00;72.24;98586.20;1743420;80;21868;-81
2021/04/07 11:57:38;;;;;;;4.92;2.92;;;;;;;12.97;71.76;98594.89;1747149;79;21772;-81
2021/04/07 12:00:46;;;;;;;3.58;2.70;;;;;;;12.93;71.44;98600.54;1704839;81;21493;-82
2021/04/07 12:03:51;;;;;;;4.12;2.70;;;;;;;12.92;71.63;98608.47;1738073;80;21183;-81
2021/04/07 12:06:57;;;;;;;8.90;2.75;;;;;;;13.03;71.85;98607.70;1756989;80;21695;-81
2021/04/07 12:10:04;;;;;;;8.20;2.77;;;;;;;13.18;71.25;98603.69;1713952;81;21193;-82
2021/04/07 12:13:11;;;;;;;3.37;2.50;;;;;;;13.24;71.50;98598.11;1746826;79;21178;-82
2021/04/07 12:16:18;;;;;;;5.58;3.25;;;;;;;13.39;71.48;98586.67;1725591;81;21329;-82
2021/04/07 12:19:26;;;;;;;4.08;2.72;;;;;;;13.53;70.72;98581.80;1726912;81;21241;-81
2021/04/07 12:22:31;;;;;;;4.55;2.80;;;;;;;13.71;70.64;98598.18;1716188;81;21894;-81
2021/04/07 12:25:38;;;;;;;5.17;2.75;;;;;;;13.79;69.19;98603.33;1734022;80;21274;-80
2021/04/07 12:28:44;;;;;;;6.70;3.37;;;;;;;13.70;68.31;98612.16;1747919;81;21805;-81
2021/04/07 12:31:50;;;;;;;4.40;3.15;;;;;;;13.55;68.08;98616.75;1746848;81;21330;-81
2021/04/07 12:34:56;;;;;;;5.30;3.35;;;;;;;13.43;68.72;98617.26;1736111;79;21848;-81
2021/04/07 12:38:01;;;;;;;4.08;3.45;;;;;;;13.46;69.66;98613.51;1753789;79;21294;-81
2021/04/07 12:41:17;;;;;;;7.05;4.70;;;;;;;13.58;69.36;98605.27;1728533;81;21179;-81
2021/04/07 12:44:16;;;;;;;10.82;5.03;;;;;;;13.65;68.47;98606.55;1759686;79;21187;-80
2021/04/07 12:47:22;;;;;;;7.25;5.42;;;;;;;13.71;67.85;98613.84;1739363;80;21954;-81
2021/04/07 12:50:26;;;;;;;6.50;5.50;;;;;;;13.79;66.69;98605.25;1744115;80;21284;-81
2021/04/07 12:53:31;;;;;;;9.08;6.22;;;;;;;13.81;65.92;98616.82;1731241;81;22292;-80
2021/04/07 12:56:37;;;;;;;8.85;5.97;;;;;;;13.76;66.03;98616.70;1729262;80;21746;-80
2021/04/07 12:59:43;;;;;;;11.55;6.80;;;;;;;13.64;65.96;98607.06;1753285;81;21321;-80
2021/04/07 13:02:48;;;;;;;9.93;6.90;;;;;;;13.56;66.65;98610.18;1749869;79;21223;-82
2021/04/07 13:05:54;;;;;;;10.90;7.65;;;;;;;13.47;67.45;98615.17;1749052;81;21175;-80
2021/04/07 13:09:00;;;;;;;15.00;9.05;;;;;;;13.47;66.79;98613.80;1753340;79;21305;-79
2021/04/07 13:12:06;;;;;;;25.97;13.88;;;;;;;13.49;66.70;98606.16;1766587;79;21310;-81
2021/04/07 13:15:13;;;;;;;25.08;14.63;;;;;;;13.44;65.61;98623.88;1729580;80;21676;-81
2021/04/07 13:18:22;;;;;;;23.12;14.63;;;;;;;13.38;65.29;98619.88;1745554;80;22023;-80
2021/04/07 13:21:28;;;;;;;23.47;15.15;;;;;;;13.31;66.49;98625.45;1727331;80;21256;-81
2021/04/07 13:24:33;;;;;;;26.68;17.32;;;;;;;13.30;66.74;98626.53;1743621;81;21865;-80
2021/04/07 13:27:39;;;;;;;27.77;17.07;;;;;;;13.32;65.56;98639.51;1740941;80;21901;-81
2021/04/07 13:30:46;;;;;;;34.60;19.57;;;;;;;13.28;64.96;98645.16;1745091;80;21303;-80
2021/04/07 13:34:01;;;;;;;37.10;19.15;;;;;;;13.20;65.09;98639.97;1741451;80;21294;-81
2021/04/07 13:37:22;;;;;;;34.63;19.40;;;;;;;13.20;65.74;98641.34;1744011;80;21315;-80
2021/04/07 13:43:36;;;;;;;18.23;12.57;;;;;;;13.25;65.96;98651.95;1740563;80;21298;-81
2021/04/07 13:46:42;;;;;;;16.80;11.18;;;;;;;13.29;65.91;98648.20;1719878;81;21220;-81
2021/04/07 13:49:46;;;;;;;12.50;8.43;;;;;;;13.30;65.06;98653.98;1743396;80;21307;-80
2021/04/07 13:52:54;;;;;;;13.00;8.50;;;;;;;13.28;65.06;98650.66;1751973;81;21148;-81
2021/04/07 13:56:02;;;;;;;13.55;8.38;;;;;;;13.23;65.01;98657.38;1760849;81;21756;-81
2021/04/07 13:59:07;;;;;;;12.05;6.05;;;;;;;13.15;65.30;98661.79;1769624;81;22172;-81
2021/04/07 14:02:12;;;;;;;7.33;5.47;;;;;;;13.16;65.62;98670.32;1746665;81;21872;-80
2021/04/07 14:05:18;;;;;;;8.30;4.60;;;;;;;13.20;65.61;98663.30;1769875;81;21733;-80
2021/04/07 14:08:25;;;;;;;7.17;4.95;;;;;;;13.25;64.80;98667.05;1769687;81;21652;-81
2021/04/07 14:11:32;;;;;;;7.17;5.42;;;;;;;13.28;64.21;98671.25;1769978;81;21203;-81
2021/04/07 14:14:38;;;;;;;5.65;4.37;;;;;;;13.30;65.07;98667.17;1770480;81;21301;-80
2021/04/07 14:17:43;;;;;;;6.75;4.47;;;;;;;13.35;65.54;98671.14;1749187;81;21321;-80
2021/04/07 14:20:52;;;;;;;7.15;5.10;;;;;;;13.33;64.78;98683.73;1770286;81;21748;-80
2021/04/07 14:23:56;;;;;;;8.40;5.30;;;;;;;13.30;64.32;98675.95;1761230;81;21701;-80
2021/04/07 14:27:04;;;;;;;9.63;5.15;;;;;;;13.26;64.31;98676.95;1770074;81;21195;-80
2021/04/07 14:30:07;;;;;;;9.58;6.90;;;;;;;13.23;64.90;98680.19;1771666;81;21804;-81
2021/04/07 14:33:14;;;;;;;15.70;7.53;;;;;;;13.19;66.83;98682.22;1750057;81;21235;-80
2021/04/07 14:36:22;;;;;;;10.53;7.33;;;;;;;13.08;68.13;98686.60;1771593;81;21290;-80